Time;durP1;ratioP1;P1;durP2;ratioP2;P2;SDS_P1;SDS_P2;PMS_P1;PMS_P2;Temp;Humidity;BMP_temperature;BMP_pressure;BME280_temperature;BME280_humidity;BME280_pressure;Samples;Min_cycle;Max_cycle;Signal;HPM_P1;HPM_P2
2023/06/18 00:02:07;;;;;;;44.30;24.10;;;;;;;;;;4915714;29;20090;-91
2023/06/18 00:04:53;;;;;;;43.33;26.23;;;;;;;;;;4915646;29;20158;-91
2023/06/18 00:07:38;;;;;;;41.30;23.08;;;;;;;;;;4919609;29;20054;-91
2023/06/18 00:10:22;;;;;;;40.92;23.63;;;;;;;;;;4905461;29;20086;-91
2023/06/18 00:13:07;;;;;;;45.72;26.35;;;;;;;;;;4905026;29;20047;-91
2023/06/18 00:15:51;;;;;;;43.22;26.65;;;;;;;;;;4919175;29;20485;-90
2023/06/18 00:18:36;;;;;;;41.97;26.98;;;;;;;;;;4919517;29;20086;-91
2023/06/18 00:21:21;;;;;;;42.25;25.58;;;;;;;;;;4905172;29;20090;-90
2023/06/18 00:24:06;;;;;;;39.47;24.38;;;;;;;;;;4891687;29;20071;-91
2023/06/18 00:26:50;;;;;;;44.65;25.00;;;;;;;;;;4904615;29;20055;-91
2023/06/18 00:29:35;;;;;;;51.20;27.42;;;;;;;;;;4919372;29;20039;-91
2023/06/18 00:32:20;;;;;;;44.70;26.10;;;;;;;;;;4919364;29;20425;-91
2023/06/18 00:35:05;;;;;;;40.83;25.92;;;;;;;;;;4904585;29;20115;-91
2023/06/18 00:37:50;;;;;;;46.67;27.25;;;;;;;;;;4904875;29;20416;-90
2023/06/18 00:40:34;;;;;;;47.08;25.67;;;;;;;;;;4919154;29;20071;-91
2023/06/18 00:43:19;;;;;;;46.05;25.58;;;;;;;;;;4919191;29;20079;-92
2023/06/18 00:46:04;;;;;;;37.85;22.92;;;;;;;;;;4918547;29;20104;-92
2023/06/18 00:48:49;;;;;;;46.58;26.20;;;;;;;;;;4904765;29;20087;-92
2023/06/18 00:51:37;;;;;;;48.20;25.33;;;;;;;;;;4918965;29;20044;-91
2023/06/18 00:54:22;;;;;;;52.08;27.83;;;;;;;;;;4918945;29;20068;-91
2023/06/18 00:57:08;;;;;;;49.85;26.95;;;;;;;;;;4891159;29;20083;-91
2023/06/18 00:59:53;;;;;;;40.75;24.85;;;;;;;;;;4904428;29;20412;-91
2023/06/18 01:02:45;;;;;;;45.92;25.48;;;;;;;;;;4918828;29;20163;-91
2023/06/18 01:05:31;;;;;;;44.78;25.25;;;;;;;;;;4892090;29;20048;-91
2023/06/18 01:08:17;;;;;;;47.90;27.13;;;;;;;;;;4918175;29;20047;-90
2023/06/18 01:11:03;;;;;;;46.13;25.33;;;;;;;;;;4903917;29;20047;-91
2023/06/18 01:13:48;;;;;;;40.05;24.80;;;;;;;;;;4918667;29;20496;-91
2023/06/18 01:16:33;;;;;;;45.03;25.13;;;;;;;;;;4903995;29;20047;-92
2023/06/18 01:19:27;;;;;;;51.90;28.17;;;;;;;;;;4918023;29;20082;-92
2023/06/18 01:22:24;;;;;;;51.53;27.00;;;;;;;;;;4903752;29;20520;-92
2023/06/18 01:25:09;;;;;;;51.95;27.90;;;;;;;;;;4918104;29;20043;-90
2023/06/18 01:27:54;;;;;;;46.63;25.85;;;;;;;;;;4918221;29;20092;-90
2023/06/18 01:30:39;;;;;;;42.85;25.77;;;;;;;;;;4903972;29;20055;-90
2023/06/18 01:33:25;;;;;;;40.83;24.27;;;;;;;;;;4890740;29;20600;-89
2023/06/18 01:36:12;;;;;;;46.85;26.00;;;;;;;;;;4917792;29;20048;-90
2023/06/18 01:39:00;;;;;;;41.10;23.55;;;;;;;;;;4918069;29;20457;-91
2023/06/18 01:41:47;;;;;;;41.35;23.77;;;;;;;;;;4918112;29;20039;-91
2023/06/18 01:44:32;;;;;;;47.15;25.88;;;;;;;;;;4918119;29;20052;-91
2023/06/18 01:47:19;;;;;;;41.42;24.88;;;;;;;;;;4917496;29;20063;-91
2023/06/18 01:50:04;;;;;;;44.75;25.23;;;;;;;;;;4917498;29;20051;-92
2023/06/18 01:52:49;;;;;;;40.35;24.67;;;;;;;;;;4917918;29;20163;-90
2023/06/18 01:55:37;;;;;;;39.58;23.60;;;;;;;;;;4903648;29;20043;-91
2023/06/18 01:58:22;;;;;;;40.72;24.23;;;;;;;;;;4903147;29;20047;-90
2023/06/18 02:01:06;;;;;;;39.45;24.17;;;;;;;;;;4903058;29;20119;-90
2023/06/18 02:03:51;;;;;;;47.42;25.63;;;;;;;;;;4903374;29;20040;-92
2023/06/18 02:06:35;;;;;;;40.22;24.90;;;;;;;;;;4903279;29;20529;-91
2023/06/18 02:09:20;;;;;;;39.40;23.83;;;;;;;;;;4917292;29;20164;-90
2023/06/18 02:12:05;;;;;;;43.85;25.13;;;;;;;;;;4889823;29;20457;-90
2023/06/18 02:14:50;;;;;;;41.83;23.35;;;;;;;;;;4903147;29;20038;-91
2023/06/18 02:17:34;;;;;;;35.28;23.42;;;;;;;;;;4917344;29;20095;-93
2023/06/18 02:20:19;;;;;;;41.63;24.52;;;;;;;;;;4902867;29;20038;-91
2023/06/18 02:23:04;;;;;;;37.25;23.48;;;;;;;;;;4889544;29;20067;-91
2023/06/18 02:25:49;;;;;;;45.72;24.33;;;;;;;;;;4903025;29;20047;-91
2023/06/18 02:28:34;;;;;;;46.15;26.98;;;;;;;;;;4917124;29;20107;-91
2023/06/18 02:31:18;;;;;;;47.38;26.52;;;;;;;;;;4916888;29;20406;-91
2023/06/18 02:34:03;;;;;;;48.83;26.13;;;;;;;;;;4902765;29;20100;-94
2023/06/18 02:36:48;;;;;;;45.47;26.13;;;;;;;;;;4917084;29;20119;-91
2023/06/18 02:39:32;;;;;;;41.42;25.05;;;;;;;;;;4902772;29;20067;-91
2023/06/18 02:42:20;;;;;;;40.92;25.88;;;;;;;;;;4916783;29;20534;-91
2023/06/18 02:45:05;;;;;;;40.00;23.50;;;;;;;;;;4916912;29;20514;-92
2023/06/18 02:47:50;;;;;;;42.95;25.65;;;;;;;;;;4917120;29;20063;-91
2023/06/18 02:50:35;;;;;;;43.60;24.58;;;;;;;;;;4917039;29;20099;-90
2023/06/18 02:53:20;;;;;;;45.28;24.90;;;;;;;;;;4902519;29;20095;-91
2023/06/18 02:56:05;;;;;;;47.83;25.27;;;;;;;;;;4916825;29;20047;-90
2023/06/18 02:58:55;;;;;;;40.78;25.05;;;;;;;;;;4916657;29;20078;-91
2023/06/18 03:01:40;;;;;;;44.42;24.05;;;;;;;;;;4902351;29;20087;-91
2023/06/18 03:04:25;;;;;;;49.63;25.38;;;;;;;;;;4916300;29;20044;-90
2023/06/18 03:07:09;;;;;;;47.08;25.05;;;;;;;;;;4901845;29;20059;-91
2023/06/18 03:09:55;;;;;;;45.15;26.92;;;;;;;;;;4902213;29;20043;-91
2023/06/18 03:12:39;;;;;;;41.33;24.08;;;;;;;;;;4916601;29;20043;-91
2023/06/18 03:15:23;;;;;;;42.03;24.52;;;;;;;;;;4901837;29;20043;-90
2023/06/18 03:18:08;;;;;;;42.13;24.15;;;;;;;;;;4902190;29;20103;-91
2023/06/18 03:20:53;;;;;;;50.95;25.88;;;;;;;;;;4916164;29;20054;-90
2023/06/18 03:23:38;;;;;;;41.67;24.20;;;;;;;;;;4901764;29;20064;-90
2023/06/18 03:26:23;;;;;;;45.10;24.35;;;;;;;;;;4915955;29;20507;-89
2023/06/18 03:29:07;;;;;;;39.47;23.50;;;;;;;;;;4916327;29;20504;-91
2023/06/18 03:31:54;;;;;;;39.47;23.10;;;;;;;;;;4916400;29;20051;-90
2023/06/18 03:34:42;;;;;;;43.92;25.05;;;;;;;;;;4901926;29;20048;-90
2023/06/18 03:37:27;;;;;;;38.42;24.13;;;;;;;;;;4902320;29;20051;-91
2023/06/18 03:40:12;;;;;;;44.25;24.02;;;;;;;;;;4916028;29;20222;-91
2023/06/18 03:42:56;;;;;;;48.88;26.83;;;;;;;;;;4904202;29;20051;-90
2023/06/18 03:45:41;;;;;;;49.25;25.77;;;;;;;;;;4924000;29;20043;-90
2023/06/18 03:48:26;;;;;;;43.15;24.55;;;;;;;;;;4906053;29;20059;-92
2023/06/18 03:51:10;;;;;;;41.17;24.13;;;;;;;;;;4916601;29;20047;-89
2023/06/18 03:53:55;;;;;;;48.53;26.33;;;;;;;;;;4915874;29;20454;-91
2023/06/18 03:56:39;;;;;;;54.70;28.55;;;;;;;;;;4915965;29;20092;-91
2023/06/18 03:59:24;;;;;;;47.33;26.50;;;;;;;;;;4901326;29;20043;-90
2023/06/18 04:02:08;;;;;;;51.58;27.10;;;;;;;;;;4901648;29;20114;-90
2023/06/18 04:04:53;;;;;;;49.40;26.40;;;;;;;;;;4914785;29;20068;-90
2023/06/18 04:07:38;;;;;;;50.10;26.45;;;;;;;;;;4901062;29;20123;-91
2023/06/18 04:10:23;;;;;;;48.60;24.88;;;;;;;;;;4915501;29;20051;-91
2023/06/18 04:13:07;;;;;;;48.60;26.35;;;;;;;;;;4915925;29;20095;-90
2023/06/18 04:15:52;;;;;;;47.25;25.80;;;;;;;;;;4915906;29;20051;-90
2023/06/18 04:18:37;;;;;;;55.80;28.02;;;;;;;;;;4915502;29;20099;-91
2023/06/18 04:21:21;;;;;;;84.43;27.42;;;;;;;;;;4901248;29;20051;-90
2023/06/18 04:24:06;;;;;;;84.85;27.75;;;;;;;;;;4914906;29;20066;-90
2023/06/18 04:26:50;;;;;;;102.30;28.08;;;;;;;;;;4915632;29;20091;-89
2023/06/18 04:29:35;;;;;;;54.58;27.73;;;;;;;;;;4915438;29;20457;-89
2023/06/18 04:32:20;;;;;;;55.15;26.88;;;;;;;;;;4915501;29;20036;-90
2023/06/18 04:35:04;;;;;;;53.67;26.65;;;;;;;;;;4915840;29;20131;-91
2023/06/18 04:37:49;;;;;;;50.58;26.48;;;;;;;;;;4901894;29;20052;-89
2023/06/18 04:40:34;;;;;;;44.55;24.52;;;;;;;;;;4901290;29;20060;-89
2023/06/18 04:43:18;;;;;;;47.85;25.98;;;;;;;;;;4915911;29;20475;-90
2023/06/18 04:46:03;;;;;;;42.70;25.63;;;;;;;;;;4901391;29;20038;-90
2023/06/18 04:48:47;;;;;;;40.83;23.95;;;;;;;;;;4901128;29;20068;-90
2023/06/18 04:51:32;;;;;;;43.92;24.23;;;;;;;;;;4900982;29;20043;-90
2023/06/18 04:54:17;;;;;;;42.90;24.65;;;;;;;;;;4918822;29;20068;-89
2023/06/18 04:57:02;;;;;;;47.30;26.00;;;;;;;;;;4918901;29;20496;-89
2023/06/18 04:59:46;;;;;;;41.90;23.80;;;;;;;;;;4917905;29;20088;-90
2023/06/18 05:02:31;;;;;;;36.28;22.48;;;;;;;;;;4904084;29;20039;-90
2023/06/18 05:05:15;;;;;;;40.00;24.95;;;;;;;;;;4917883;29;20430;-90
2023/06/18 05:08:00;;;;;;;37.58;22.73;;;;;;;;;;4917679;29;20147;-90
2023/06/18 05:10:44;;;;;;;32.83;20.52;;;;;;;;;;4917210;29;20043;-91
2023/06/18 05:13:29;;;;;;;35.38;20.38;;;;;;;;;;4918126;29;20084;-90
2023/06/18 05:16:13;;;;;;;37.20;21.83;;;;;;;;;;4904326;29;20043;-90
2023/06/18 05:18:58;;;;;;;37.08;21.67;;;;;;;;;;4891132;29;20059;-90
2023/06/18 05:21:43;;;;;;;35.35;22.55;;;;;;;;;;4903839;29;20047;-91
2023/06/18 05:24:27;;;;;;;32.95;21.00;;;;;;;;;;4917079;29;20092;-90
2023/06/18 05:27:12;;;;;;;30.30;19.60;;;;;;;;;;4918369;29;20540;-90
2023/06/18 05:29:57;;;;;;;31.92;20.98;;;;;;;;;;4917273;29;20035;-89
2023/06/18 05:32:41;;;;;;;31.50;21.27;;;;;;;;;;4903696;29;20051;-90
2023/06/18 05:35:26;;;;;;;32.75;22.13;;;;;;;;;;4917954;29;20532;-92
2023/06/18 05:38:10;;;;;;;35.63;22.70;;;;;;;;;;4917297;29;20409;-90
2023/06/18 05:40:55;;;;;;;35.70;21.77;;;;;;;;;;4918130;29;20154;-90
2023/06/18 05:43:39;;;;;;;32.47;21.10;;;;;;;;;;4917782;29;20088;-90
2023/06/18 05:46:24;;;;;;;31.17;19.48;;;;;;;;;;4890475;29;20123;-90
2023/06/18 05:49:09;;;;;;;32.97;20.52;;;;;;;;;;4890562;29;20063;-91
2023/06/18 05:51:54;;;;;;;31.30;20.23;;;;;;;;;;4917902;29;20043;-91
2023/06/18 05:54:39;;;;;;;30.42;20.52;;;;;;;;;;4917478;29;20050;-90
2023/06/18 05:57:23;;;;;;;28.70;18.92;;;;;;;;;;4903456;29;20082;-90
2023/06/18 06:00:08;;;;;;;26.58;19.92;;;;;;;;;;4890314;29;20096;-91
2023/06/18 06:02:53;;;;;;;31.25;20.00;;;;;;;;;;4903031;29;20083;-90
2023/06/18 06:05:38;;;;;;;24.85;17.73;;;;;;;;;;4917343;29;20043;-91
2023/06/18 06:08:23;;;;;;;27.67;19.10;;;;;;;;;;4917543;29;20059;-91
2023/06/18 06:11:07;;;;;;;28.90;19.15;;;;;;;;;;4917782;29;20465;-91
2023/06/18 06:13:52;;;;;;;26.70;18.73;;;;;;;;;;4902818;29;20047;-90
2023/06/18 06:16:37;;;;;;;26.80;18.50;;;;;;;;;;4902978;29;20040;-91
2023/06/18 06:19:21;;;;;;;27.83;19.40;;;;;;;;;;4917464;29;20080;-91
2023/06/18 06:22:05;;;;;;;28.17;18.88;;;;;;;;;;4903127;29;20055;-91
2023/06/18 06:24:53;;;;;;;29.65;18.33;;;;;;;;;;4916904;29;20516;-90
2023/06/18 06:27:38;;;;;;;24.45;17.42;;;;;;;;;;4916816;29;20067;-90
2023/06/18 06:30:25;;;;;;;27.75;17.67;;;;;;;;;;4903126;29;20095;-90
2023/06/18 06:33:12;;;;;;;27.48;18.08;;;;;;;;;;4903387;29;20465;-90
2023/06/18 06:35:57;;;;;;;28.00;17.83;;;;;;;;;;4903018;29;20459;-90
2023/06/18 06:38:42;;;;;;;24.17;17.98;;;;;;;;;;4916585;29;20087;-90
2023/06/18 06:41:26;;;;;;;26.05;18.10;;;;;;;;;;4902667;29;20092;-91
2023/06/18 06:44:11;;;;;;;27.92;18.55;;;;;;;;;;4889534;29;20123;-91
2023/06/18 06:46:56;;;;;;;24.73;17.15;;;;;;;;;;4916240;29;20520;-91
2023/06/18 06:49:41;;;;;;;25.15;17.85;;;;;;;;;;4916567;29;20078;-90
2023/06/18 06:52:25;;;;;;;24.73;17.20;;;;;;;;;;4916758;29;20543;-90
2023/06/18 06:55:10;;;;;;;21.30;15.57;;;;;;;;;;4902449;29;20047;-90
2023/06/18 06:57:54;;;;;;;26.10;16.77;;;;;;;;;;4888864;29;20047;-90
2023/06/18 07:00:39;;;;;;;27.77;17.73;;;;;;;;;;4916297;29;20108;-90
2023/06/18 07:03:24;;;;;;;24.27;15.68;;;;;;;;;;4902233;29;20054;-90
2023/06/18 07:06:08;;;;;;;22.85;15.85;;;;;;;;;;4902350;29;20047;-90
2023/06/18 07:08:53;;;;;;;21.95;15.07;;;;;;;;;;4901718;29;20051;-91
2023/06/18 07:11:40;;;;;;;22.90;15.15;;;;;;;;;;4901788;29;20043;-92
2023/06/18 07:14:24;;;;;;;22.42;13.77;;;;;;;;;;4902480;29;20044;-91
2023/06/18 07:17:09;;;;;;;23.00;14.93;;;;;;;;;;4916308;29;20103;-91
2023/06/18 07:19:54;;;;;;;22.25;15.55;;;;;;;;;;4901756;29;20572;-90
2023/06/18 07:22:39;;;;;;;18.00;13.80;;;;;;;;;;4901616;29;20039;-91
2023/06/18 07:25:23;;;;;;;19.00;13.80;;;;;;;;;;4915428;29;20051;-90
2023/06/18 07:28:08;;;;;;;19.85;14.25;;;;;;;;;;4916242;29;20051;-91
2023/06/18 07:30:52;;;;;;;18.13;13.15;;;;;;;;;;4915068;29;20047;-91
2023/06/18 07:33:37;;;;;;;19.17;13.32;;;;;;;;;;4915273;29;20150;-90
2023/06/18 07:36:21;;;;;;;17.38;13.45;;;;;;;;;;4916305;29;20088;-90
2023/06/18 07:39:06;;;;;;;19.27;12.73;;;;;;;;;;4916307;29;20100;-90
2023/06/18 07:41:51;;;;;;;17.15;12.07;;;;;;;;;;4915803;29;20048;-90
2023/06/18 07:44:35;;;;;;;21.33;12.93;;;;;;;;;;4916307;29;20544;-91
2023/06/18 07:47:20;;;;;;;16.58;12.25;;;;;;;;;;4925325;29;20106;-90
2023/06/18 07:50:07;;;;;;;21.20;13.13;;;;;;;;;;4907235;29;20480;-90
2023/06/18 07:52:51;;;;;;;19.30;12.75;;;;;;;;;;4920232;29;20051;-90
2023/06/18 07:55:36;;;;;;;21.13;12.95;;;;;;;;;;4920769;29;20047;-91
2023/06/18 07:58:20;;;;;;;17.67;12.57;;;;;;;;;;4907382;29;20055;-91
2023/06/18 08:01:05;;;;;;;17.48;12.50;;;;;;;;;;4934703;29;20043;-90
2023/06/18 08:03:49;;;;;;;17.45;12.93;;;;;;;;;;4920357;29;20087;-90
2023/06/18 08:06:34;;;;;;;16.25;12.18;;;;;;;;;;4907343;29;20417;-90
2023/06/18 08:09:19;;;;;;;17.95;13.20;;;;;;;;;;4934929;29;20054;-90
2023/06/18 08:12:04;;;;;;;14.80;11.18;;;;;;;;;;4920158;29;20491;-91
2023/06/18 08:14:48;;;;;;;14.65;10.40;;;;;;;;;;4934650;29;20086;-91
2023/06/18 08:17:33;;;;;;;16.20;11.98;;;;;;;;;;4920496;29;20086;-91
2023/06/18 08:20:17;;;;;;;16.08;11.27;;;;;;;;;;4935015;29;20119;-91
2023/06/18 08:23:02;;;;;;;13.55;10.45;;;;;;;;;;4934453;29;20127;-90
2023/06/18 08:25:47;;;;;;;13.82;11.07;;;;;;;;;;4934304;29;20062;-90
2023/06/18 08:28:31;;;;;;;15.98;9.65;;;;;;;;;;4938359;29;20056;-90
2023/06/18 08:31:16;;;;;;;15.10;10.60;;;;;;;;;;4910706;29;20164;-90
2023/06/18 08:34:01;;;;;;;12.40;9.75;;;;;;;;;;4923605;29;20099;-92
2023/06/18 08:36:47;;;;;;;14.18;9.55;;;;;;;;;;4938047;29;20128;-92
2023/06/18 08:39:31;;;;;;;16.38;9.88;;;;;;;;;;4938284;29;20039;-91
2023/06/18 08:42:20;;;;;;;12.00;9.40;;;;;;;;;;4937074;29;20039;-91
2023/06/18 08:45:05;;;;;;;11.77;9.35;;;;;;;;;;4936775;29;20499;-92
2023/06/18 08:47:51;;;;;;;14.65;8.32;;;;;;;;;;4909943;29;20098;-91
2023/06/18 08:50:38;;;;;;;11.15;8.40;;;26.50;97.80;;;;;;4938103;29;20416;-91
2023/06/18 08:53:26;;;;;;;12.07;8.40;;;;;;;;;;4937772;29;20519;-91
2023/06/18 08:56:14;;;;;;;14.27;8.32;;;26.60;96.90;;;;;;4937559;29;20051;-91
2023/06/18 08:58:59;;;;;;;13.35;7.93;;;;;;;;;;4937567;29;20042;-91
2023/06/18 09:01:45;;;;;;;9.88;7.45;;;;;;;;;;4936848;29;20047;-90
2023/06/18 09:04:31;;;;;;;9.73;6.40;;;;;;;;;;4937693;29;20043;-92
2023/06/18 09:07:16;;;;;;;9.77;7.53;;;;;;;;;;4937637;29;20043;-91
2023/06/18 09:10:02;;;;;;;10.05;6.43;;;;;;;;;;4937351;29;20048;-91
2023/06/18 09:12:47;;;;;;;9.90;6.70;;;;;;;;;;4937692;29;20136;-91
2023/06/18 09:15:31;;;;;;;10.40;6.93;;;;;;;;;;4923345;29;20448;-92
2023/06/18 09:18:16;;;;;;;9.43;6.75;;;;;;;;;;4936652;29;20412;-91
2023/06/18 09:21:03;;;;;;;12.18;6.72;;;;;;;;;;4937126;29;20528;-91
2023/06/18 09:23:54;;;;;;;10.60;6.72;;;;;;;;;;4937626;29;20083;-90
2023/06/18 09:26:39;;;;;;;10.40;6.25;;;;;;;;;;4937433;29;20042;-91
2023/06/18 09:29:27;;;;;;;10.45;6.82;;;;;;;;;;4909745;29;20623;-91
2023/06/18 09:32:13;;;;;;;9.07;5.47;;;;;;;;;;4936994;29;20618;-92
2023/06/18 09:35:12;;;;;;;7.85;5.55;;;;;;;;;;4935993;29;20090;-92
2023/06/18 09:37:56;;;;;;;14.52;6.88;;;;;;;;;;4936220;29;20069;-91
2023/06/18 09:40:41;;;;;;;7.82;5.28;;;;;;;;;;4937264;29;20556;-90
2023/06/18 09:43:37;;;;;;;10.07;5.78;;;28.50;78.00;;;;;;4937294;29;20496;-90
2023/06/18 09:46:25;;;;;;;7.60;5.55;;;;;;;;;;4936902;29;20448;-90
2023/06/18 09:49:12;;;;;;;7.97;5.38;;;28.80;76.30;;;;;;4936644;29;20099;-91
2023/06/18 09:51:57;;;;;;;11.38;5.68;;;;;;;;;;4922115;29;20453;-91
2023/06/18 09:54:43;;;;;;;8.07;5.88;;;;;;;;;;4935929;29;20064;-92
2023/06/18 09:57:27;;;;;;;6.40;5.60;;;;;;;;;;4936885;29;20046;-90
2023/06/18 10:00:12;;;;;;;9.88;5.28;;;;;;;;;;4935412;29;20484;-90
2023/06/18 10:03:06;;;;;;;6.55;4.82;;;;;;;;;;4908854;29;20039;-90
2023/06/18 10:05:51;;;;;;;7.15;4.70;;;;;;;;;;4936852;29;20556;-92
2023/06/18 10:08:38;;;;;;;9.27;5.75;;;;;;;;;;4922275;29;20050;-91
2023/06/18 10:11:22;;;;;;;7.03;5.70;;;;;;;;;;4935624;29;20062;-92
2023/06/18 10:14:11;;;;;;;9.18;5.28;;;;;;;;;;4935982;29;20068;-92
2023/06/18 10:16:59;;;;;;;11.60;5.07;;;;;;;;;;4935599;29;20038;-90
2023/06/18 10:19:45;;;;;;;8.75;5.43;;;;;;;;;;4936487;29;20047;-91
2023/06/18 10:22:33;;;;;;;8.75;5.28;;;;;;;;;;4936396;29;20577;-93
2023/06/18 10:25:18;;;;;;;8.80;6.40;;;;;;;;;;4936644;29;20284;-91
2023/06/18 10:28:03;;;;;;;8.63;6.00;;;;;;;;;;4935019;29;20054;-91
2023/06/18 10:30:48;;;;;;;6.70;5.00;;;;;;;;;;4936296;29;20102;-91
2023/06/18 10:33:34;;;;;;;7.00;5.38;;;;;;;;;;4935294;29;20094;-91
2023/06/18 10:36:19;;;;;;;7.15;5.60;;;;;;;;;;4921619;29;20625;-91
2023/06/18 10:39:04;;;;;;;10.27;5.82;;;;;;;;;;4935758;29;20062;-92
2023/06/18 10:41:49;;;;;;;9.75;5.85;;;;;;;;;;4936190;29;20051;-92
2023/06/18 10:44:48;;;;;;;8.05;5.65;;;;;;;;;;4936568;29;20091;-92
2023/06/18 10:47:32;;;;;;;7.50;5.38;;;;;;;;;;4935128;29;20062;-92
2023/06/18 10:50:18;;;;;;;9.63;5.75;;;;;;;;;;4935568;29;20456;-93
2023/06/18 10:53:21;;;;;;;9.55;5.82;;;;;;;;;;4935620;29;20091;-89
2023/06/18 10:56:06;;;;;;;8.13;5.65;;;;;;;;;;4935544;29;20043;-92
2023/06/18 10:58:51;;;;;;;6.75;4.90;;;;;;;;;;4936050;29;20047;-92
2023/06/18 11:01:36;;;;;;;7.60;5.03;;;;;;;;;;4935782;29;20035;-92
2023/06/18 11:04:21;;;;;;;7.55;5.15;;;;;;;;;;4934595;29;20406;-92
2023/06/18 11:07:15;;;;;;;7.72;5.25;;;;;;;;;;4935253;29;20097;-91
2023/06/18 11:10:01;;;;;;;8.02;5.53;;;;;;;;;;4935985;29;20552;-90
2023/06/18 11:12:45;;;;;;;7.88;5.25;;;;;;;;;;4935565;29;20053;-91
2023/06/18 11:15:30;;;;;;;7.88;5.28;;;;;;;;;;4935637;29;20094;-92
2023/06/18 11:18:20;;;;;;;9.75;5.35;;;;;;;;;;4935396;29;20046;-91
2023/06/18 11:21:05;;;;;;;6.50;5.60;;;;;;;;;;4934579;29;20046;-90
2023/06/18 11:23:51;;;;;;;7.15;4.95;;;;;;;;;;4908303;29;20122;-91
2023/06/18 11:26:35;;;;;;;8.00;4.50;;;;;;;;;;4908533;29;20503;-91
2023/06/18 11:29:20;;;;;;;6.55;5.05;;;;;;;;;;4909431;29;20075;-91
2023/06/18 11:32:14;;;;;;;6.60;5.07;;;;;;;;;;4923769;29;20111;-91
2023/06/18 11:35:00;;;;;;;5.57;4.80;;;;;;;;;;4938577;29;20508;-91
2023/06/18 11:37:45;;;;;;;8.57;4.70;;;;;;;;;;4938938;29;20043;-91
2023/06/18 11:40:30;;;;;;;6.65;5.13;;;;;;;;;;4936593;29;20039;-90
2023/06/18 11:43:15;;;;;;;8.43;4.57;;;;;;;;;;4941467;29;20110;-90
2023/06/18 11:46:00;;;;;;;7.18;5.30;;;;;;;;;;4910709;29;20127;-93
2023/06/18 11:48:44;;;;;;;8.07;4.93;;;;;;;;;;4935456;29;20078;-92
2023/06/18 11:51:30;;;;;;;7.00;4.18;;;;;;;;;;4936216;29;20316;-90
2023/06/18 11:54:15;;;;;;;6.18;3.92;;;;;;;;;;4934434;29;20087;-91
2023/06/18 11:57:00;;;;;;;8.60;4.97;;;;;;;;;;4936226;29;20046;-90
2023/06/18 11:59:45;;;;;;;6.95;5.15;;;;;;;;;;4921974;29;20531;-92
2023/06/18 12:02:30;;;;;;;10.80;4.90;;;;;;;;;;4937074;29;20629;-91
2023/06/18 12:05:14;;;;;;;13.77;6.53;;;;;;;;;;4939087;29;20094;-91
2023/06/18 12:08:07;;;;;;;8.40;4.90;;;;;;;;;;4939573;29;20082;-91
2023/06/18 12:10:53;;;;;;;9.23;4.72;;;;;;;;;;4938511;29;20062;-93
2023/06/18 12:13:41;;;;;;;6.22;4.88;;;;;;;;;;4939514;29;20063;-92
2023/06/18 12:16:29;;;;;;;5.20;4.07;;;30.80;53.20;;;;;;4939391;29;20114;-91
2023/06/18 12:19:14;;;;;;;8.23;4.75;;;;;;;;;;4939566;29;20039;-92
2023/06/18 12:21:59;;;;;;;9.38;5.18;;;;;;;;;;4939486;29;20105;-91
2023/06/18 12:24:44;;;;;;;6.90;4.90;;;;;;;;;;4924502;29;20093;-92
2023/06/18 12:27:29;;;;;;;8.70;4.97;;;;;;;;;;4937674;29;20051;-93
2023/06/18 12:30:14;;;;;;;7.00;4.40;;;;;;;;;;4938763;29;20468;-90
2023/06/18 12:33:19;;;;;;;7.10;4.38;;;;;;;;;;4939331;29;20047;-90
2023/06/18 12:36:05;;;;;;;7.75;4.60;;;;;;;;;;4938483;29;20042;-91
2023/06/18 12:38:50;;;;;;;6.57;4.65;;;;;;;;;;4938374;29;20119;-91
2023/06/18 12:41:36;;;;;;;7.35;4.80;;;;;;;;;;4937951;29;20487;-92
2023/06/18 12:44:21;;;;;;;10.40;5.60;;;;;;;;;;4936958;29;20048;-91
2023/06/18 12:47:06;;;;;;;6.60;4.70;;;;;;;;;;4938221;29;20062;-92
2023/06/18 12:49:51;;;;;;;7.60;4.70;;;;;;;;;;4924594;29;20511;-91
2023/06/18 12:52:45;;;;;;;9.25;5.35;;;;;;;;;;4938017;29;20636;-92
2023/06/18 12:55:29;;;;;;;6.70;4.55;;;;;;;;;;4938429;29;20046;-91
2023/06/18 12:58:23;;;;;;;6.68;4.97;;;;;;;;;;4938391;29;20518;-92
2023/06/18 13:01:08;;;;;;;8.02;5.32;;;;;;;;;;4937313;29;20118;-92
2023/06/18 13:03:54;;;;;;;7.75;5.70;;;;;;;;;;4938507;29;20134;-91
2023/06/18 13:06:39;;;;;;;9.38;5.38;;;;;;;;;;4938290;29;20462;-91
2023/06/18 13:09:24;;;;;;;7.32;5.05;;;;;;;;;;4938070;29;20484;-92
2023/06/18 13:12:10;;;;;;;8.65;5.32;;;;;;;;;;4936896;29;20093;-92
2023/06/18 13:14:54;;;;;;;5.65;4.63;;;;;;;;;;4937020;29;20038;-91
2023/06/18 13:17:40;;;;;;;5.75;4.70;;;;;;;;;;4922840;29;20043;-91
2023/06/18 13:20:24;;;;;;;8.95;4.63;;;;;;;;;;4937209;29;20042;-91
2023/06/18 13:23:10;;;;;;;7.70;4.72;;;;;;;;;;4936423;29;20047;-91
2023/06/18 13:25:56;;;;;;;6.22;4.35;;;;;;;;;;4937479;29;20448;-92
2023/06/18 13:28:40;;;;;;;5.65;4.38;;;;;;;;;;4936768;29;20039;-91
2023/06/18 13:31:25;;;;;;;8.85;4.90;;;;;;;;;;4936619;29;20136;-91
2023/06/18 13:34:10;;;;;;;5.82;4.43;;;;;;;;;;4936975;29;20042;-91
2023/06/18 13:36:55;;;;;;;7.28;4.13;;;;;;;;;;4935685;29;20495;-91
2023/06/18 13:39:39;;;;;;;6.78;4.95;;;;;;;;;;4935547;29;20635;-91
2023/06/18 13:42:24;;;;;;;7.38;5.03;;;;;;;;;;4922146;29;20043;-90
2023/06/18 13:45:09;;;;;;;6.43;4.90;;;;;;;;;;4936630;29;20074;-92
2023/06/18 13:47:54;;;;;;;6.43;5.22;;;;;;;;;;4936068;29;20115;-90
2023/06/18 13:50:38;;;;;;;9.15;5.63;;;;;;;;;;4935550;29;20062;-90
2023/06/18 13:53:23;;;;;;;6.68;4.88;;;;;;;;;;4935242;29;20042;-90
2023/06/18 13:56:08;;;;;;;7.68;4.75;;;;;;;;;;4934679;29;20100;-91
2023/06/18 13:58:52;;;;;;;6.47;4.80;;;;;;;;;;4934585;29;20515;-90
2023/06/18 14:01:37;;;;;;;9.38;5.18;;;;;;;;;;4934377;29;20452;-91
2023/06/18 14:04:24;;;;;;;7.38;5.18;;;;;;;;;;4935226;29;20098;-91
2023/06/18 14:07:09;;;;;;;8.07;5.45;;;;;;;;;;4921376;29;20043;-90
2023/06/18 14:09:53;;;;;;;9.38;5.00;;;;;;;;;;4921348;29;20423;-91
2023/06/18 14:12:38;;;;;;;7.35;5.68;;;;;;;;;;4920805;29;20042;-91
2023/06/18 14:15:23;;;;;;;8.35;5.00;;;;;;;;;;4936238;29;20514;-91
2023/06/18 14:18:08;;;;;;;9.52;5.85;;;;;;;;;;4935307;29;20094;-90
2023/06/18 14:20:53;;;;;;;6.80;5.18;;;;;;;;;;4934308;29;20055;-90
2023/06/18 14:23:37;;;;;;;7.15;5.68;;;;;;;;;;4934030;29;20051;-90
2023/06/18 14:26:23;;;;;;;9.02;6.03;;;;;;;;;;4920557;29;20087;-91
2023/06/18 14:29:08;;;;;;;8.32;5.93;;;;;;;;;;4935134;29;20050;-90
2023/06/18 14:31:54;;;;;;;7.25;5.40;;;;;;;;;;4935177;29;20055;-92
2023/06/18 14:34:38;;;;;;;7.38;5.57;;;;;;;;;;4934699;29;20042;-90
2023/06/18 14:37:23;;;;;;;7.97;5.68;;;;;;;;;;4920785;29;20073;-89
2023/06/18 14:40:08;;;;;;;8.88;5.40;;;;;;;;;;4934928;29;20400;-90
2023/06/18 14:42:53;;;;;;;7.47;5.75;;;;;;;;;;4934339;29;20070;-90
2023/06/18 14:45:37;;;;;;;7.10;5.63;;;;;;;;;;4934481;29;20058;-90
2023/06/18 14:48:22;;;;;;;7.28;5.47;;;;;;;;;;4871031;29;1083743;-91
2023/06/18 14:51:06;;;;;;;9.98;5.35;;;;;;;;;;4935731;29;20408;-90
2023/06/18 14:53:53;;;;;;;7.68;5.55;;;;;;;;;;4934905;29;20676;-90
2023/06/18 14:56:40;;;;;;;7.35;5.47;;;;;;;;;;4935194;29;20628;-89
2023/06/18 14:59:25;;;;;;;8.88;5.93;;;;;;;;;;4935377;29;20174;-91
2023/06/18 15:02:10;;;;;;;8.90;6.07;;;;;;;;;;4935497;29;20043;-90
2023/06/18 15:04:56;;;;;;;14.32;9.02;;;;;;;;;;4934977;29;20038;-91
2023/06/18 15:07:40;;;;;;;6.60;5.72;;;;;;;;;;4934990;29;20074;-89
2023/06/18 15:10:25;;;;;;;12.05;6.88;;;;;;;;;;4935318;29;20038;-90
2023/06/18 15:13:09;;;;;;;11.82;7.75;;;;;;;;;;4934369;29;20642;-91
2023/06/18 15:15:54;;;;;;;11.52;6.72;;;;;;;;;;4934894;29;20051;-91
2023/06/18 15:18:38;;;;;;;10.10;6.47;;;;;;;;;;4920286;29;20042;-90
2023/06/18 15:21:23;;;;;;;11.00;6.13;;;;;;;;;;4935232;29;20177;-91
2023/06/18 15:24:08;;;;;;;10.80;8.40;;;;;;;;;;4935203;29;20094;-91
2023/06/18 15:26:52;;;;;;;14.00;8.93;;;;;;;;;;4920624;29;20090;-90
2023/06/18 15:29:36;;;;;;;8.70;6.70;;;;;;;;;;4933287;29;20058;-91
2023/06/18 15:32:21;;;;;;;8.98;6.32;;;;;;;;;;4933912;29;20091;-91
2023/06/18 15:35:06;;;;;;;8.73;6.25;;;;;;;;;;4934908;29;20126;-91
2023/06/18 15:37:51;;;;;;;10.18;6.38;;;;;;;;;;4934189;29;20042;-91
2023/06/18 15:40:36;;;;;;;9.20;5.57;;;;;;;;;;4935488;29;20047;-90
2023/06/18 15:43:21;;;;;;;9.15;6.18;;;;;;;;;;4936114;29;20038;-90
2023/06/18 15:46:06;;;;;;;11.75;6.72;;;;;;;;;;4921084;29;20130;-91
2023/06/18 15:48:50;;;;;;;11.02;6.10;;;;;;;;;;4928408;29;20186;-91
2023/06/18 15:51:38;;;;;;;8.95;6.03;;;;;;;;;;4916615;29;20107;-91
2023/06/18 15:54:23;;;;;;;10.63;6.57;;;;;;;;;;4915066;29;20182;-92
2023/06/18 15:57:07;;;;;;;8.48;6.43;;;;;;;;;;4902153;29;20377;-89
2023/06/18 15:59:52;;;;;;;7.68;5.90;;;;;;;;;;4915173;29;20047;-88
2023/06/18 16:02:36;;;;;;;8.05;5.63;;;;;;;;;;4915720;29;20038;-89
2023/06/18 16:05:22;;;;;;;7.22;5.72;;;;;;;;;;4915424;29;20496;-89
2023/06/18 16:08:07;;;;;;;7.25;5.40;;;;;;;;;;4916199;29;20099;-90
2023/06/18 16:10:52;;;;;;;8.13;5.93;;;;;;;;;;4915872;29;20078;-90
2023/06/18 16:13:36;;;;;;;8.27;6.00;;;;;;;;;;4915469;29;20060;-90